Time;durP1;ratioP1;P1;durP2;ratioP2;P2;SDS_P1;SDS_P2;PMS_P1;PMS_P2;Temp;Humidity;BMP_temperature;BMP_pressure;BME280_temperature;BME280_humidity;BME280_pressure;Samples;Min_cycle;Max_cycle;Signal;HPM_P1;HPM_P2
2022/03/01 00:01:41;;;;;;;22.47;11.53;;;0.10;99.90;;;;;;5057078;28;20176;-39
2022/03/01 00:04:07;;;;;;;19.63;11.30;;;0.10;99.90;;;;;;5073822;28;20170;-38
2022/03/01 00:06:33;;;;;;;17.50;11.03;;;0.00;99.90;;;;;;5073705;28;20182;-38
2022/03/01 00:08:59;;;;;;;16.47;10.57;;;0.00;99.90;;;;;;5074030;28;20659;-41
2022/03/01 00:11:25;;;;;;;18.33;10.93;;;0.00;99.90;;;;;;5073719;28;20184;-37
2022/03/01 00:13:51;;;;;;;18.27;10.80;;;-0.10;99.90;;;;;;5091793;28;20200;-38
2022/03/01 00:16:19;;;;;;;16.27;10.20;;;-0.10;99.90;;;;;;5073816;28;20243;-38
2022/03/01 00:18:46;;;;;;;17.00;10.37;;;-0.20;99.90;;;;;;5073060;28;20184;-37
2022/03/01 00:21:12;;;;;;;19.07;10.53;;;-0.20;99.90;;;;;;5056726;28;20218;-37
2022/03/01 00:23:39;;;;;;;17.23;10.57;;;-0.30;99.90;;;;;;5073263;28;20217;-38
2022/03/01 00:26:05;;;;;;;17.90;10.27;;;-0.40;99.90;;;;;;5073409;28;20184;-38
2022/03/01 00:28:31;;;;;;;18.70;11.27;;;-0.40;99.90;;;;;;5072840;28;20177;-38
2022/03/01 00:30:57;;;;;;;18.10;11.03;;;-0.40;99.90;;;;;;5055950;28;20173;-37
2022/03/01 00:33:24;;;;;;;20.03;12.30;;;-0.40;99.90;;;;;;5072823;28;20213;-37
2022/03/01 00:35:49;;;;;;;17.70;10.83;;;-0.50;99.90;;;;;;5072804;28;20218;-39
2022/03/01 00:38:15;;;;;;;19.57;10.70;;;-0.50;99.90;;;;;;5056775;28;20176;-37
2022/03/01 00:40:41;;;;;;;17.33;10.13;;;-0.60;99.90;;;;;;5052851;28;20187;-38
2022/03/01 00:43:07;;;;;;;15.53;9.53;;;-0.60;99.90;;;;;;5036132;28;20315;-37
2022/03/01 00:45:33;;;;;;;16.17;10.23;;;-0.60;99.90;;;;;;5036208;28;20659;-37
2022/03/01 00:47:58;;;;;;;15.97;10.53;;;-0.70;99.90;;;;;;5053149;28;20189;-37
2022/03/01 00:50:24;;;;;;;18.00;9.83;;;-0.70;99.90;;;;;;5036302;28;20217;-38
2022/03/01 00:52:50;;;;;;;15.93;10.03;;;-0.70;99.90;;;;;;5052654;28;20201;-38
2022/03/01 00:55:16;;;;;;;18.20;10.33;;;-0.70;99.90;;;;;;5053131;28;20677;-40
2022/03/01 00:57:42;;;;;;;17.53;10.57;;;-0.70;99.90;;;;;;5052712;28;20181;-38
2022/03/01 01:00:09;;;;;;;19.13;11.70;;;-0.70;99.90;;;;;;5052934;28;20177;-37
2022/03/01 01:02:35;;;;;;;18.43;10.83;;;-0.60;99.90;;;;;;5036662;28;20201;-38
2022/03/01 01:05:02;;;;;;;17.50;11.00;;;-0.70;99.90;;;;;;5070818;28;20177;-37
2022/03/01 01:07:28;;;;;;;18.17;10.57;;;-0.70;99.90;;;;;;5052802;28;20717;-37
2022/03/01 01:09:54;;;;;;;18.93;11.00;;;-0.70;99.90;;;;;;5039744;28;20268;-37
2022/03/01 01:12:19;;;;;;;18.33;11.40;;;-0.70;99.90;;;;;;5056148;28;20219;-38
2022/03/01 01:14:45;;;;;;;18.73;10.70;;;-0.70;99.90;;;;;;5055687;28;20357;-38
2022/03/01 01:17:11;;;;;;;17.77;10.77;;;-0.70;99.90;;;;;;5056060;28;20177;-37
2022/03/01 01:19:37;;;;;;;18.60;10.93;;;-0.80;99.90;;;;;;5055714;28;20184;-37
2022/03/01 01:24:47;;;;;;;18.77;11.60;;;-0.90;99.90;;;;;;5073005;28;20185;-38
2022/03/01 01:27:13;;;;;;;22.47;12.50;;;-0.90;99.90;;;;;;5055627;28;20225;-39
2022/03/01 01:29:39;;;;;;;19.93;12.33;;;-1.00;99.90;;;;;;5072301;28;20192;-37
2022/03/01 01:32:06;;;;;;;19.07;11.43;;;-1.10;99.90;;;;;;5058123;28;20200;-37
2022/03/01 01:34:32;;;;;;;16.43;10.63;;;-1.10;99.90;;;;;;5059623;28;20207;-38
2022/03/01 01:36:58;;;;;;;18.20;10.47;;;-1.10;99.90;;;;;;5076962;28;20176;-38
2022/03/01 01:39:23;;;;;;;21.53;11.40;;;-1.10;99.90;;;;;;5059483;28;20182;-37
2022/03/01 01:41:49;;;;;;;18.47;10.70;;;-1.10;99.90;;;;;;5058893;28;20583;-37
2022/03/01 01:44:15;;;;;;;19.10;10.97;;;-1.20;99.90;;;;;;5076392;28;20180;-41
2022/03/01 01:46:41;;;;;;;18.97;11.70;;;-1.20;99.90;;;;;;5059366;28;20187;-37
2022/03/01 01:49:07;;;;;;;19.37;11.10;;;-1.20;99.90;;;;;;5059125;28;20268;-37
2022/03/01 01:51:33;;;;;;;18.80;11.40;;;-1.30;99.90;;;;;;5075975;28;20183;-37
2022/03/01 01:54:00;;;;;;;20.07;12.00;;;-1.30;99.90;;;;;;5059366;28;20208;-37
2022/03/01 01:56:27;;;;;;;16.97;10.90;;;-1.40;99.90;;;;;;5076193;28;20221;-37
2022/03/01 01:58:52;;;;;;;21.87;12.23;;;-1.40;99.90;;;;;;5075532;28;20535;-39
2022/03/01 02:01:18;;;;;;;20.60;11.80;;;-1.50;99.90;;;;;;5059629;28;20211;-38
2022/03/01 02:03:44;;;;;;;18.07;11.30;;;-1.40;99.90;;;;;;5059302;28;20203;-40
2022/03/01 02:06:10;;;;;;;18.43;10.60;;;-1.30;99.90;;;;;;5076020;28;20172;-37
2022/03/01 02:08:36;;;;;;;20.50;12.40;;;-1.40;99.90;;;;;;5059247;28;20212;-37
2022/03/01 02:11:03;;;;;;;18.47;11.77;;;-1.30;99.90;;;;;;5059260;28;20195;-38
2022/03/01 02:13:29;;;;;;;19.23;11.73;;;-1.40;99.90;;;;;;5058715;28;20204;-37
2022/03/01 02:15:56;;;;;;;22.77;10.90;;;-1.40;99.90;;;;;;5075602;28;20219;-37
2022/03/01 02:18:22;;;;;;;20.17;11.70;;;-1.50;99.90;;;;;;5059416;28;20206;-37
2022/03/01 02:20:48;;;;;;;22.53;12.23;;;-1.60;99.90;;;;;;5058539;28;20190;-37
2022/03/01 02:23:14;;;;;;;18.87;11.37;;;-1.60;99.90;;;;;;5075833;28;20200;-37
2022/03/01 02:25:40;;;;;;;21.27;12.97;;;-1.80;99.90;;;;;;5075338;28;20216;-37
2022/03/01 02:28:06;;;;;;;20.10;11.07;;;-1.80;99.90;;;;;;5058599;28;20173;-37
2022/03/01 02:30:32;;;;;;;21.20;12.23;;;-1.90;99.90;;;;;;5058176;28;20177;-38
2022/03/01 02:32:59;;;;;;;20.43;12.17;;;-1.90;99.90;;;;;;5058893;28;20581;-37
2022/03/01 02:35:25;;;;;;;22.13;12.40;;;-1.80;99.90;;;;;;5075426;28;20208;-37
2022/03/01 02:37:51;;;;;;;20.30;11.87;;;-1.90;99.90;;;;;;5075293;28;20184;-37
2022/03/01 02:40:18;;;;;;;23.30;12.63;;;-1.90;99.90;;;;;;5075682;28;20256;-37
2022/03/01 02:42:45;;;;;;;22.07;11.80;;;-1.90;99.90;;;;;;5073927;28;20203;-38
2022/03/01 02:45:15;;;;;;;20.60;12.23;;;-1.90;99.90;;;;;;5074966;28;20237;-38
2022/03/01 02:47:41;;;;;;;20.23;12.00;;;-1.90;99.90;;;;;;5058181;28;20279;-38
2022/03/01 02:50:08;;;;;;;18.07;11.10;;;-1.90;99.90;;;;;;5074621;28;20179;-40
2022/03/01 02:52:34;;;;;;;22.00;12.00;;;-1.90;99.90;;;;;;5058139;28;20207;-37
2022/03/01 02:55:01;;;;;;;19.67;11.00;;;-2.00;99.90;;;;;;5058543;28;20239;-37
2022/03/01 02:57:27;;;;;;;20.73;10.27;;;-2.20;99.90;;;;;;5092742;28;20168;-37
2022/03/01 02:59:55;;;;;;;20.23;11.00;;;-2.30;99.90;;;;;;5074379;28;20219;-36
2022/03/01 03:02:20;;;;;;;17.27;10.80;;;-2.40;99.90;;;;;;5057764;28;20591;-38
2022/03/01 03:04:46;;;;;;;19.13;10.80;;;-2.30;99.90;;;;;;5057976;28;20192;-38
2022/03/01 03:07:14;;;;;;;18.33;11.10;;;-2.20;99.90;;;;;;5057530;28;20206;-38
2022/03/01 03:09:39;;;;;;;20.57;11.10;;;-2.20;99.90;;;;;;5057118;28;20237;-36
2022/03/01 03:12:06;;;;;;;18.97;11.67;;;-2.20;99.90;;;;;;5057533;28;20212;-37
2022/03/01 03:14:32;;;;;;;21.27;11.47;;;-2.30;99.90;;;;;;5092302;28;20680;-37
2022/03/01 03:16:58;;;;;;;19.17;11.10;;;-2.40;99.90;;;;;;5073425;28;20169;-38
2022/03/01 03:19:27;;;;;;;19.50;10.17;;;-2.40;99.90;;;;;;5057806;28;20212;-37
2022/03/01 03:21:55;;;;;;;20.43;11.10;;;-2.50;99.90;;;;;;5058292;28;20283;-37
2022/03/01 03:24:21;;;;;;;17.60;10.43;;;-2.50;99.90;;;;;;5092625;28;20185;-37
2022/03/01 03:26:46;;;;;;;21.03;11.03;;;-2.50;99.90;;;;;;5057233;28;20182;-37
2022/03/01 03:29:13;;;;;;;18.60;10.27;;;-2.40;99.90;;;;;;5058056;28;20180;-38
2022/03/01 03:31:41;;;;;;;18.27;10.63;;;-2.40;99.90;;;;;;5058319;28;20177;-37
2022/03/01 03:34:09;;;;;;;17.53;10.73;;;-2.40;99.90;;;;;;5057155;28;20734;-37
2022/03/01 03:36:36;;;;;;;17.17;10.53;;;-2.40;99.90;;;;;;5057555;28;20660;-35
2022/03/01 03:39:04;;;;;;;18.17;11.17;;;-2.30;99.90;;;;;;5056934;28;20177;-35
2022/03/01 03:41:32;;;;;;;18.27;11.10;;;-2.30;99.90;;;;;;5073299;28;20209;-35
2022/03/01 03:44:01;;;;;;;18.77;10.63;;;-2.30;99.90;;;;;;5057650;28;20176;-36
2022/03/01 03:46:27;;;;;;;19.87;10.73;;;-2.40;99.90;;;;;;5056938;28;20188;-36
2022/03/01 03:48:53;;;;;;;19.13;10.83;;;-2.50;99.90;;;;;;5056589;28;20236;-36
2022/03/01 03:51:20;;;;;;;19.23;10.10;;;-2.50;99.90;;;;;;5057188;28;20302;-35
2022/03/01 03:53:47;;;;;;;19.20;10.83;;;-2.50;99.90;;;;;;5056416;28;20564;-35
2022/03/01 03:56:13;;;;;;;17.50;10.87;;;-2.50;99.90;;;;;;5056967;28;20183;-35
2022/03/01 03:58:39;;;;;;;20.60;10.87;;;-2.50;99.90;;;;;;5073673;28;20254;-36
2022/03/01 04:01:05;;;;;;;19.20;10.60;;;-2.70;99.90;;;;;;5073491;28;20180;-35
2022/03/01 04:03:32;;;;;;;20.17;10.53;;;-2.60;99.90;;;;;;5073291;28;20215;-35
2022/03/01 04:05:58;;;;;;;19.27;10.50;;;-2.60;99.90;;;;;;5056457;28;20199;-35
2022/03/01 04:08:24;;;;;;;21.10;11.17;;;-2.70;99.90;;;;;;5056764;28;20209;-35
2022/03/01 04:10:50;;;;;;;18.30;10.27;;;-2.60;99.90;;;;;;5056643;28;20192;-37
2022/03/01 04:13:16;;;;;;;20.30;11.07;;;-2.60;99.90;;;;;;5073177;28;20294;-36
2022/03/01 04:15:42;;;;;;;18.10;10.50;;;-2.60;99.90;;;;;;5073545;28;20261;-35
2022/03/01 04:18:08;;;;;;;19.30;10.77;;;-2.70;99.90;;;;;;5056432;28;20687;-36
2022/03/01 04:20:34;;;;;;;19.43;10.47;;;-2.70;99.90;;;;;;5056114;28;20180;-35
2022/03/01 04:23:00;;;;;;;18.00;10.57;;;-2.70;99.90;;;;;;5056653;28;20208;-35
2022/03/01 04:25:26;;;;;;;19.33;10.53;;;-2.70;99.90;;;;;;5056517;28;20180;-37
2022/03/01 04:27:52;;;;;;;17.87;10.37;;;-2.70;99.90;;;;;;5056564;28;20179;-36
2022/03/01 04:30:18;;;;;;;15.70;9.93;;;-2.70;99.90;;;;;;5072957;28;20181;-36
2022/03/01 04:32:45;;;;;;;18.80;10.40;;;-2.80;99.90;;;;;;5056346;28;20205;-35
2022/03/01 04:35:12;;;;;;;15.27;10.10;;;-2.80;99.90;;;;;;5056236;28;20223;-35
2022/03/01 04:37:40;;;;;;;19.13;10.30;;;-3.00;99.90;;;;;;5056155;28;20184;-36
2022/03/01 04:40:08;;;;;;;20.13;10.37;;;-3.10;99.90;;;;;;5056547;28;20188;-35
2022/03/01 04:42:34;;;;;;;18.80;10.37;;;-3.20;99.90;;;;;;5090611;28;20237;-35
2022/03/01 04:45:01;;;;;;;18.83;9.87;;;-3.20;99.90;;;;;;5072894;28;20180;-36
2022/03/01 04:47:27;;;;;;;18.03;10.37;;;-3.20;99.90;;;;;;5056311;28;20184;-35
2022/03/01 04:49:53;;;;;;;18.70;10.27;;;-3.20;99.90;;;;;;5072806;28;20252;-36
2022/03/01 04:52:19;;;;;;;19.17;10.77;;;-3.20;99.90;;;;;;5073142;28;20291;-35
2022/03/01 04:54:45;;;;;;;17.30;9.60;;;-3.20;99.90;;;;;;5056354;28;20196;-36
2022/03/01 04:57:11;;;;;;;19.00;10.57;;;-3.20;99.90;;;;;;5091110;28;20230;-36
2022/03/01 04:59:37;;;;;;;17.30;10.67;;;-3.10;99.90;;;;;;5055963;28;20180;-36
2022/03/01 05:02:04;;;;;;;16.97;9.80;;;-3.00;99.90;;;;;;5072661;28;20227;-35
2022/03/01 05:04:29;;;;;;;17.97;9.87;;;-3.00;99.90;;;;;;5055966;28;20176;-36
2022/03/01 05:06:56;;;;;;;16.97;10.23;;;-3.00;99.90;;;;;;5074743;28;20181;-35
2022/03/01 05:09:22;;;;;;;17.23;10.37;;;-2.90;99.90;;;;;;5059938;28;20267;-36
2022/03/01 05:11:51;;;;;;;15.43;10.13;;;-2.90;99.90;;;;;;5060234;28;20306;-46
2022/03/01 05:14:19;;;;;;;17.70;10.90;;;-2.90;99.90;;;;;;5059767;28;20212;-38
2022/03/01 05:16:45;;;;;;;15.90;10.57;;;-2.90;99.90;;;;;;5076472;28;20184;-39
2022/03/01 05:19:12;;;;;;;23.17;12.13;;;-3.00;99.90;;;;;;5060264;28;20176;-39
2022/03/01 05:21:38;;;;;;;23.27;12.57;;;-3.00;99.90;;;;;;5060359;28;20219;-41
2022/03/01 05:24:05;;;;;;;23.43;11.97;;;-3.10;99.90;;;;;;5059454;28;20208;-39
2022/03/01 05:26:32;;;;;;;18.70;10.33;;;-3.20;99.90;;;;;;5076322;28;20250;-37
2022/03/01 05:28:57;;;;;;;16.83;10.27;;;-3.20;99.90;;;;;;5075844;28;20184;-37
2022/03/01 05:31:24;;;;;;;18.70;10.73;;;-3.50;99.90;;;;;;5059748;28;20173;-38
2022/03/01 05:33:49;;;;;;;17.90;9.37;;;-3.70;99.90;;;;;;5076340;28;20212;-37
2022/03/01 05:36:15;;;;;;;17.83;10.03;;;-3.60;99.90;;;;;;5059647;28;20767;-39
2022/03/01 05:38:42;;;;;;;21.40;10.47;;;-3.60;99.90;;;;;;5059359;28;20184;-37
2022/03/01 05:41:08;;;;;;;19.90;10.67;;;-3.60;99.90;;;;;;5059388;28;20180;-37
2022/03/01 05:43:36;;;;;;;16.63;9.97;;;-3.50;99.90;;;;;;5076516;28;20261;-37
2022/03/01 05:46:02;;;;;;;18.77;10.53;;;-3.50;99.90;;;;;;5059173;28;20568;-37
2022/03/01 05:48:28;;;;;;;18.53;10.47;;;-3.50;99.90;;;;;;5059366;28;20173;-41
2022/03/01 05:50:55;;;;;;;20.17;11.63;;;-3.50;99.90;;;;;;5093950;28;20250;-37
2022/03/01 05:53:21;;;;;;;18.10;10.70;;;-3.40;99.90;;;;;;5076093;28;20223;-38
2022/03/01 05:55:47;;;;;;;19.77;10.93;;;-3.30;99.90;;;;;;5058971;28;20287;-37
2022/03/01 05:58:13;;;;;;;19.43;10.23;;;-3.20;99.90;;;;;;5075671;28;20255;-38
2022/03/01 06:00:39;;;;;;;19.60;10.30;;;-3.20;99.90;;;;;;5058884;28;20256;-38
2022/03/01 06:03:05;;;;;;;19.47;9.60;;;-3.20;99.90;;;;;;5093876;28;20192;-37
2022/03/01 06:05:31;;;;;;;17.77;10.53;;;-3.30;99.90;;;;;;5075685;28;20246;-38
2022/03/01 06:07:57;;;;;;;18.57;9.97;;;-3.40;99.90;;;;;;5058817;28;20181;-38
2022/03/01 06:10:25;;;;;;;14.60;9.33;;;-3.50;99.90;;;;;;5058795;28;20193;-37
2022/03/01 06:12:50;;;;;;;19.07;10.17;;;-3.60;99.90;;;;;;5075580;28;20222;-39
2022/03/01 06:15:16;;;;;;;21.47;10.17;;;-3.60;99.90;;;;;;5075370;28;20204;-40
2022/03/01 06:17:43;;;;;;;17.77;9.73;;;-3.60;99.90;;;;;;5058742;28;20176;-40
2022/03/01 06:20:10;;;;;;;19.70;10.20;;;-3.60;99.90;;;;;;5058442;28;20195;-37
2022/03/01 06:22:36;;;;;;;19.17;10.03;;;-3.60;99.90;;;;;;5058760;28;20265;-38
2022/03/01 06:25:03;;;;;;;17.13;9.57;;;-3.70;99.90;;;;;;5058313;28;20207;-37
2022/03/01 06:27:29;;;;;;;19.40;9.87;;;-3.70;99.90;;;;;;5075550;28;20180;-38
2022/03/01 06:29:54;;;;;;;17.73;9.97;;;-3.70;99.90;;;;;;5058554;28;20253;-38
2022/03/01 06:32:20;;;;;;;20.33;10.17;;;-3.70;99.90;;;;;;5051247;28;20267;-38
2022/03/01 06:34:47;;;;;;;20.37;10.37;;;-3.70;99.90;;;;;;5064416;28;20220;-38
2022/03/01 06:37:13;;;;;;;21.33;10.77;;;-3.70;99.90;;;;;;5081383;28;20207;-37
2022/03/01 06:39:43;;;;;;;17.97;10.40;;;-3.70;99.90;;;;;;5063493;28;20169;-38
2022/03/01 06:42:11;;;;;;;17.13;9.93;;;-3.70;99.90;;;;;;5085543;28;20196;-41
2022/03/01 06:44:37;;;;;;;19.03;10.30;;;-3.60;99.90;;;;;;5048874;28;20706;-38
2022/03/01 06:47:04;;;;;;;23.23;11.10;;;-3.40;99.90;;;;;;5071640;28;20210;-37
2022/03/01 06:49:31;;;;;;;23.07;12.17;;;-3.40;99.90;;;;;;5091628;28;20193;-37
2022/03/01 06:51:57;;;;;;;19.73;10.70;;;-3.30;99.90;;;;;;5092219;28;20201;-39
2022/03/01 06:54:23;;;;;;;22.20;11.57;;;-3.30;99.90;;;;;;5058215;28;20249;-38
2022/03/01 06:56:49;;;;;;;22.60;11.23;;;-3.20;99.90;;;;;;5074982;28;20203;-37
2022/03/01 06:59:15;;;;;;;19.57;12.27;;;-3.20;99.90;;;;;;5091984;28;20172;-38
2022/03/01 07:01:41;;;;;;;25.07;12.57;;;-3.00;99.90;;;;;;5093152;28;20184;-38
2022/03/01 07:04:07;;;;;;;26.00;14.33;;;-2.90;99.90;;;;;;5091679;28;20236;-37
2022/03/01 07:06:33;;;;;;;24.57;13.50;;;-2.90;99.90;;;;;;5074271;28;20291;-38
2022/03/01 07:09:00;;;;;;;24.13;13.27;;;-2.80;99.90;;;;;;5074719;28;20173;-40
2022/03/01 07:11:26;;;;;;;23.13;11.83;;;-2.60;99.90;;;;;;5063450;28;20181;-38
2022/03/01 07:13:51;;;;;;;20.13;11.27;;;-2.50;99.90;;;;;;5072850;28;20284;-38
2022/03/01 07:16:18;;;;;;;19.83;11.20;;;-2.40;99.90;;;;;;5038077;28;20244;-39
2022/03/01 07:18:44;;;;;;;29.27;16.53;;;-2.40;99.90;;;;;;5037840;28;20607;-37
2022/03/01 07:21:10;;;;;;;19.50;11.67;;;-2.30;99.90;;;;;;5037498;28;20601;-38
2022/03/01 07:23:36;;;;;;;20.50;12.27;;;-2.20;99.90;;;;;;5054556;28;20194;-40
2022/03/01 07:26:04;;;;;;;20.77;11.43;;;-2.20;99.90;;;;;;5054176;28;20178;-38
2022/03/01 07:28:30;;;;;;;19.37;12.70;;;-2.20;99.90;;;;;;5037542;28;20188;-39
2022/03/01 07:30:57;;;;;;;23.07;12.00;;;-2.10;99.90;;;;;;5053983;28;20268;-40
2022/03/01 07:33:24;;;;;;;20.07;10.73;;;-2.10;99.90;;;;;;5037790;28;20231;-38
2022/03/01 07:35:50;;;;;;;19.50;10.97;;;-2.10;99.90;;;;;;5046474;28;20205;-37
2022/03/01 07:38:16;;;;;;;18.73;11.03;;;-2.00;99.90;;;;;;5063682;28;20187;-38
2022/03/01 07:40:42;;;;;;;19.17;11.63;;;-1.90;99.90;;;;;;5051600;28;20185;-41
2022/03/01 07:43:08;;;;;;;21.23;12.03;;;-1.80;99.90;;;;;;5072122;28;20189;-39
2022/03/01 07:45:34;;;;;;;18.70;9.93;;;-1.80;99.90;;;;;;5074325;28;20203;-38
2022/03/01 07:48:01;;;;;;;21.27;11.30;;;-1.70;99.90;;;;;;5073991;28;20184;-38
2022/03/01 07:50:28;;;;;;;19.60;11.13;;;-1.60;99.90;;;;;;5086410;28;20168;-37
2022/03/01 07:52:55;;;;;;;19.80;10.73;;;-1.50;99.90;;;;;;5064930;28;20205;-38
2022/03/01 07:55:23;;;;;;;17.50;10.87;;;-1.40;99.90;;;;;;5064310;28;20228;-38
2022/03/01 07:57:49;;;;;;;15.83;10.17;;;-1.30;99.90;;;;;;5063713;28;20311;-38
2022/03/01 08:00:19;;;;;;;17.03;10.67;;;-1.20;99.90;;;;;;5045500;28;20267;-38
2022/03/01 08:02:46;;;;;;;19.70;11.27;;;-1.10;99.90;;;;;;5087382;28;20257;-38
2022/03/01 08:05:14;;;;;;;17.57;11.00;;;-1.00;99.90;;;;;;5068442;28;20177;-36
2022/03/01 08:07:41;;;;;;;17.50;10.60;;;-0.90;99.90;;;;;;5051527;28;20184;-37
2022/03/01 08:10:10;;;;;;;20.13;11.63;;;-0.80;99.90;;;;;;5086972;28;20226;-36
2022/03/01 08:12:36;;;;;;;19.80;11.17;;;-0.70;99.90;;;;;;5068972;28;20290;-36
2022/03/01 08:15:05;;;;;;;16.70;10.70;;;-0.50;99.90;;;;;;5048593;28;20236;-35
2022/03/01 08:17:31;;;;;;;19.87;12.27;;;-0.40;99.90;;;;;;5044450;28;20186;-36
2022/03/01 08:19:59;;;;;;;20.73;11.23;;;-0.30;99.90;;;;;;5062333;28;20176;-36
2022/03/01 08:22:25;;;;;;;18.23;11.77;;;-0.10;99.90;;;;;;5065252;28;20188;-36
2022/03/01 08:24:51;;;;;;;20.33;11.50;;;0.00;99.90;;;;;;5059594;28;20181;-36
2022/03/01 08:27:19;;;;;;;18.23;10.67;;;0.10;99.90;;;;;;5058828;28;20172;-36
2022/03/01 08:29:46;;;;;;;19.60;11.33;;;0.20;99.90;;;;;;5043752;28;20218;-36
2022/03/01 08:32:12;;;;;;;20.60;11.47;;;0.30;99.90;;;;;;5048831;28;20193;-38
2022/03/01 08:34:43;;;;;;;22.13;11.63;;;0.50;99.90;;;;;;5043360;28;20202;-36
2022/03/01 08:37:13;;;;;;;15.63;10.43;;;0.60;99.90;;;;;;5044352;28;20710;-36
2022/03/01 08:39:39;;;;;;;17.37;11.00;;;0.80;99.90;;;;;;5044491;28;20189;-36
2022/03/01 08:42:05;;;;;;;19.07;11.53;;;0.90;99.90;;;;;;5060805;28;20195;-37
2022/03/01 08:44:31;;;;;;;17.37;10.60;;;1.10;99.90;;;;;;5045089;28;20183;-36
2022/03/01 08:46:57;;;;;;;18.87;11.20;;;1.20;99.90;;;;;;5040642;28;20209;-36
2022/03/01 08:49:23;;;;;;;19.20;11.23;;;1.30;99.90;;;;;;5036250;28;20188;-36
2022/03/01 08:51:49;;;;;;;19.57;10.63;;;1.40;99.90;;;;;;5059828;28;20319;-37
2022/03/01 08:54:15;;;;;;;17.23;10.90;;;1.60;99.90;;;;;;5081628;28;20178;-36
2022/03/01 08:56:43;;;;;;;17.73;11.30;;;1.80;99.90;;;;;;5063612;28;20214;-36
2022/03/01 08:59:09;;;;;;;18.93;10.63;;;1.90;99.90;;;;;;5062001;28;20179;-37
2022/03/01 09:01:37;;;;;;;16.67;10.17;;;2.10;99.90;;;;;;5059207;28;20173;-38
2022/03/01 09:04:06;;;;;;;19.27;9.63;;;2.20;99.90;;;;;;5063844;28;20207;-36
2022/03/01 09:06:32;;;;;;;16.97;9.83;;;2.20;99.90;;;;;;5045975;28;20177;-37
2022/03/01 09:09:03;;;;;;;14.80;9.53;;;2.50;99.90;;;;;;5078111;28;20184;-36
2022/03/01 09:11:31;;;;;;;18.00;9.50;;;2.70;99.90;;;;;;5085083;28;20315;-37
2022/03/01 09:13:57;;;;;;;16.30;9.90;;;2.90;99.90;;;;;;5047159;28;20188;-36
2022/03/01 09:16:23;;;;;;;15.60;9.67;;;3.00;99.90;;;;;;5044384;28;20185;-38
2022/03/01 09:18:49;;;;;;;14.23;9.83;;;3.20;99.90;;;;;;5051977;28;20200;-36
2022/03/01 09:21:16;;;;;;;14.30;9.63;;;3.40;99.90;;;;;;5079511;28;20171;-36
2022/03/01 09:23:43;;;;;;;15.20;9.63;;;3.60;99.90;;;;;;5034728;28;20669;-38
2022/03/01 09:26:10;;;;;;;19.70;10.43;;;3.70;99.90;;;;;;5073622;28;20315;-37
2022/03/01 09:28:40;;;;;;;15.33;9.83;;;3.90;99.90;;;;;;5058725;28;20195;-36
2022/03/01 09:31:06;;;;;;;18.37;9.27;;;3.80;99.90;;;;;;5055871;28;20195;-36
2022/03/01 09:33:31;;;;;;;14.50;9.43;;;3.80;99.90;;;;;;5071022;28;20203;-37
2022/03/01 09:35:57;;;;;;;15.97;10.07;;;3.90;99.90;;;;;;5047487;28;20242;-37
2022/03/01 09:38:24;;;;;;;16.73;9.67;;;4.00;99.90;;;;;;5062999;28;20223;-36
2022/03/01 09:40:50;;;;;;;16.10;9.43;;;4.10;99.90;;;;;;5043427;28;20231;-37
2022/03/01 09:43:17;;;;;;;15.67;8.90;;;4.00;99.90;;;;;;5061388;28;20205;-36
2022/03/01 09:45:44;;;;;;;14.10;9.27;;;4.20;99.90;;;;;;5045300;28;20207;-36
2022/03/01 09:48:10;;;;;;;16.00;8.83;;;4.40;99.90;;;;;;5060185;28;20182;-36
2022/03/01 09:50:36;;;;;;;12.67;8.97;;;4.50;99.90;;;;;;5062251;28;20531;-38
2022/03/01 09:53:03;;;;;;;13.50;8.77;;;4.60;99.90;;;;;;5083059;28;20212;-36
2022/03/01 09:55:30;;;;;;;14.23;8.70;;;4.80;99.90;;;;;;5050757;28;20295;-38
2022/03/01 09:57:56;;;;;;;12.30;7.90;;;4.80;99.90;;;;;;5066278;28;20177;-36
2022/03/01 10:00:23;;;;;;;12.50;8.03;;;5.00;99.90;;;;;;5065641;28;20188;-37
2022/03/01 10:02:57;;;;;;;12.13;8.20;;;5.00;99.90;;;;;;5067254;28;20192;-37
2022/03/01 10:05:39;;;;;;;12.50;7.47;;;5.10;99.90;;;;;;5053480;28;20228;-36
2022/03/01 10:08:12;;;;;;;12.53;8.10;;;5.30;99.90;;;;;;5076622;28;20180;-37
2022/03/01 10:10:44;;;;;;;12.57;8.07;;;5.40;99.90;;;;;;5059971;28;20174;-36
2022/03/01 10:13:13;;;;;;;10.30;7.80;;;5.40;99.90;;;;;;5059374;28;20208;-36
2022/03/01 10:15:39;;;;;;;12.17;8.00;;;5.30;99.90;;;;;;5059937;28;20205;-36
2022/03/01 10:18:12;;;;;;;12.87;8.03;;;5.60;99.90;;;;;;5076734;28;20255;-39
2022/03/01 10:20:41;;;;;;;13.50;8.33;;;5.80;99.90;;;;;;5093167;28;20181;-36
2022/03/01 10:23:09;;;;;;;11.73;7.90;;;5.70;99.90;;;;;;5055335;28;20205;-37
2022/03/01 10:25:39;;;;;;;14.47;7.70;;;5.90;99.90;;;;;;5090140;28;20189;-36
2022/03/01 10:28:05;;;;;;;12.77;7.93;;;6.00;99.60;;;;;;5057557;28;20237;-36
2022/03/01 10:30:37;;;;;;;12.83;7.57;;;6.10;99.80;;;;;;5092051;28;20202;-36
2022/03/01 10:33:15;;;;;;;14.77;8.20;;;6.30;99.90;;;;;;5091905;28;20289;-37
2022/03/01 10:35:48;;;;;;;12.80;7.30;;;5.80;98.10;;;;;;5059615;28;20212;-36
2022/03/01 10:38:19;;;;;;;14.10;7.60;;;5.90;99.60;;;;;;5076780;28;20165;-36
2022/03/01 10:40:46;;;;;;;11.00;7.17;;;6.00;99.30;;;;;;5076433;28;20177;-36
2022/03/01 10:43:14;;;;;;;12.53;7.40;;;6.10;98.10;;;;;;5051383;28;20201;-36
2022/03/01 10:45:43;;;;;;;12.47;7.80;;;6.10;98.70;;;;;;5065493;28;20258;-36
2022/03/01 10:48:12;;;;;;;10.77;7.60;;;5.90;97.60;;;;;;5082841;28;20274;-38
2022/03/01 10:50:40;;;;;;;13.87;7.33;;;6.00;97.40;;;;;;5057820;28;20188;-37
2022/03/01 10:53:06;;;;;;;16.50;8.23;;;6.10;97.60;;;;;;5054527;28;20261;-36
2022/03/01 10:55:35;;;;;;;12.57;7.63;;;6.10;97.90;;;;;;5047572;28;20203;-37
2022/03/01 10:58:12;;;;;;;11.97;7.90;;;6.10;98.40;;;;;;5049716;28;20279;-41
2022/03/01 11:00:39;;;;;;;16.23;8.07;;;6.30;98.60;;;;;;5065562;28;20220;-36
2022/03/01 11:03:08;;;;;;;12.57;7.80;;;6.40;97.70;;;;;;5059929;28;20184;-37
2022/03/01 11:05:34;;;;;;;11.27;7.77;;;6.40;97.40;;;;;;5048367;28;20178;-36
2022/03/01 11:08:08;;;;;;;12.03;8.03;;;6.60;97.70;;;;;;5046484;28;20217;-36
2022/03/01 11:10:37;;;;;;;13.13;7.37;;;6.70;97.70;;;;;;5047783;28;20275;-37
2022/03/01 11:13:05;;;;;;;11.73;7.60;;;6.80;96.70;;;;;;5260822;22;20302;-31
2022/03/01 11:15:34;;;;;;;15.53;8.10;;;6.80;96.80;;;;;;5040437;28;20240;-32
2022/03/01 11:18:25;;;;;;;10.07;7.20;;;7.00;96.70;;;;;;5024647;28;20177;-31
2022/03/01 11:20:52;;;;;;;11.67;7.20;;;7.10;97.00;;;;;;5051766;28;20185;-31
2022/03/01 11:23:23;;;;;;;12.23;7.03;;;7.20;96.40;;;;;;5033890;28;20726;-31
2022/03/01 11:25:50;;;;;;;11.67;7.03;;;7.30;96.10;;;;;;5050304;28;20188;-31
2022/03/01 11:28:16;;;;;;;12.50;7.17;;;7.50;95.20;;;;;;5021323;28;20263;-31
2022/03/01 11:30:45;;;;;;;10.73;7.40;;;7.70;94.90;;;;;;5013887;28;20177;-31
2022/03/01 11:33:12;;;;;;;10.63;7.47;;;7.70;94.50;;;;;;4997554;28;20252;-31
2022/03/01 11:35:42;;;;;;;11.47;7.07;;;7.70;94.80;;;;;;5041399;28;20213;-31
2022/03/01 11:38:12;;;;;;;11.43;7.60;;;7.90;95.00;;;;;;5033636;28;20166;-31
2022/03/01 11:40:46;;;;;;;10.77;7.27;;;8.20;94.50;;;;;;5033358;28;20197;-31
2022/03/01 11:43:22;;;;;;;15.10;8.10;;;8.30;93.70;;;;;;5012075;28;20304;-32
2022/03/01 11:45:54;;;;;;;9.77;6.63;;;8.40;94.40;;;;;;5021315;28;20295;-31
2022/03/01 11:48:29;;;;;;;9.60;6.50;;;8.60;93.50;;;;;;5007700;28;20452;-31
2022/03/01 11:51:03;;;;;;;10.27;6.80;;;8.70;93.40;;;;;;5029735;28;20185;-31
2022/03/01 11:53:34;;;;;;;8.90;6.47;;;8.80;90.80;;;;;;5009369;28;20564;-31
2022/03/01 11:56:03;;;;;;;10.17;6.80;;;8.80;90.80;;;;;;5013881;28;20214;-31
2022/03/01 11:58:30;;;;;;;11.30;6.67;;;8.90;90.50;;;;;;5017182;28;20182;-30
2022/03/01 12:00:56;;;;;;;8.67;6.00;;;8.60;89.20;;;;;;5033215;28;20209;-31
2022/03/01 12:03:28;;;;;;;9.53;5.90;;;8.60;87.60;;;;;;5045147;28;20219;-31
2022/03/01 12:05:55;;;;;;;10.80;5.30;;;8.80;89.70;;;;;;5033313;28;20190;-32
2022/03/01 12:08:21;;;;;;;10.90;6.63;;;8.90;88.50;;;;;;5028635;28;20276;-31
2022/03/01 12:11:05;;;;;;;9.50;6.57;;;8.90;88.40;;;;;;5007148;28;20201;-31
2022/03/01 12:13:37;;;;;;;9.47;6.47;;;8.80;87.80;;;;;;5016850;28;20213;-31
2022/03/01 12:16:04;;;;;;;8.50;6.37;;;8.20;88.50;;;;;;5052661;28;20201;-31
2022/03/01 12:18:33;;;;;;;9.27;6.27;;;8.50;89.90;;;;;;5018467;28;20276;-31
2022/03/01 12:21:05;;;;;;;9.70;6.30;;;8.70;89.40;;;;;;5008342;28;20259;-31
2022/03/01 12:23:33;;;;;;;11.90;6.83;;;8.60;89.00;;;;;;5032770;28;20201;-31
2022/03/01 12:26:01;;;;;;;7.87;5.97;;;8.30;86.50;;;;;;5032438;28;20250;-31
2022/03/01 12:28:35;;;;;;;8.83;6.33;;;8.00;87.70;;;;;;5026916;28;20236;-32
2022/03/01 12:31:07;;;;;;;9.37;5.93;;;8.20;86.80;;;;;;5005372;28;20200;-31
2022/03/01 12:33:33;;;;;;;9.37;6.23;;;8.10;87.30;;;;;;5033026;28;20275;-31
2022/03/01 12:36:03;;;;;;;9.50;6.37;;;8.40;87.90;;;;;;5048603;28;20197;-31